Time;durP1;ratioP1;P1;durP2;ratioP2;P2;SDS_P1;SDS_P2;PMS_P1;PMS_P2;Temp;Humidity;BMP_temperature;BMP_pressure;BME280_temperature;BME280_humidity;BME280_pressure;Samples;Min_cycle;Max_cycle;Signal;HPM_P1;HPM_P2
2024/01/28 00:00:38;;;;;;;36.50;18.17;;;5.40;1.00;;;;;;5096087;28;20082;-78
2024/01/28 00:03:06;;;;;;;34.40;16.88;;;5.30;1.00;;;;;;5116231;28;20149;-78
2024/01/28 00:05:36;;;;;;;30.17;15.15;;;5.20;1.00;;;;;;5115287;28;20193;-78
2024/01/28 00:08:05;;;;;;;30.85;14.65;;;5.10;1.00;;;;;;5115779;28;20059;-78
2024/01/28 00:10:32;;;;;;;25.73;14.00;;;5.00;1.00;;;;;;5117194;28;20043;-77
2024/01/28 00:13:00;;;;;;;27.63;14.15;;;5.00;1.00;;;;;;5116589;28;20039;-78
2024/01/28 00:15:29;;;;;;;28.10;14.25;;;4.90;1.00;;;;;;5118288;28;20104;-79
2024/01/28 00:17:56;;;;;;;28.65;12.52;;;4.90;1.00;;;;;;5120591;28;20054;-78
2024/01/28 00:20:24;;;;;;;28.17;14.25;;;4.90;1.00;;;;;;5117124;28;20039;-77
2024/01/28 00:22:51;;;;;;;30.30;14.55;;;4.80;1.00;;;;;;5126233;28;20055;-77
2024/01/28 00:25:19;;;;;;;31.20;15.15;;;4.80;1.00;;;;;;5128599;28;20070;-79
2024/01/28 00:27:46;;;;;;;40.22;22.60;;;4.70;1.00;;;;;;5119258;28;20230;-77
2024/01/28 00:30:14;;;;;;;41.30;20.95;;;4.70;1.00;;;;;;5133449;28;20032;-77
2024/01/28 00:32:44;;;;;;;39.78;23.45;;;4.70;1.00;;;;;;5137567;28;20050;-78
2024/01/28 00:35:11;;;;;;;82.45;38.55;;;4.60;1.00;;;;;;5136160;28;20035;-78
2024/01/28 00:37:39;;;;;;;75.75;34.08;;;4.50;1.00;;;;;;5140827;27;20044;-78
2024/01/28 00:40:07;;;;;;;62.97;30.52;;;4.40;1.00;;;;;;5141743;27;20061;-78
2024/01/28 00:42:35;;;;;;;46.67;24.70;;;4.50;1.00;;;;;;5141135;27;20043;-77
2024/01/28 00:45:03;;;;;;;51.70;21.35;;;4.50;1.00;;;;;;5137944;27;20046;-79
2024/01/28 00:47:30;;;;;;;38.05;19.33;;;4.50;1.00;;;;;;5129788;27;20035;-77
2024/01/28 00:49:59;;;;;;;45.88;19.17;;;4.50;1.00;;;;;;5125074;27;20474;-80
2024/01/28 00:52:27;;;;;;;40.35;18.38;;;4.60;1.00;;;;;;5138494;27;20490;-78
2024/01/28 00:54:54;;;;;;;37.65;16.73;;;4.70;1.00;;;;;;5141668;27;20042;-77
2024/01/28 00:57:22;;;;;;;45.35;21.70;;;4.70;1.00;;;;;;5144018;27;20055;-79
2024/01/28 00:59:49;;;;;;;39.45;18.40;;;4.70;1.00;;;;;;5139579;27;20058;-78
2024/01/28 01:02:17;;;;;;;39.05;19.35;;;4.70;1.00;;;;;;5125633;27;20035;-79
2024/01/28 01:04:44;;;;;;;38.70;19.92;;;4.70;1.00;;;;;;5103123;27;20043;-80
2024/01/28 01:07:13;;;;;;;41.03;21.60;;;4.70;1.00;;;;;;5118738;27;20238;-79
2024/01/28 01:09:40;;;;;;;45.70;22.27;;;4.60;1.00;;;;;;5116332;27;20126;-79
2024/01/28 01:12:07;;;;;;;46.28;22.25;;;4.50;1.00;;;;;;5117413;27;20063;-77
2024/01/28 01:14:37;;;;;;;50.83;25.48;;;4.60;1.00;;;;;;5114346;27;20039;-79
2024/01/28 01:17:05;;;;;;;56.58;26.88;;;4.70;1.00;;;;;;5120576;27;20047;-79
2024/01/28 01:19:32;;;;;;;48.20;23.20;;;4.80;1.00;;;;;;5101749;27;20047;-78
2024/01/28 01:22:01;;;;;;;51.17;25.30;;;4.80;1.00;;;;;;5120188;27;20540;-77
2024/01/28 01:24:30;;;;;;;52.13;26.20;;;4.80;1.00;;;;;;5103089;27;20414;-78
2024/01/28 01:26:57;;;;;;;44.60;23.45;;;4.70;1.00;;;;;;5118445;27;20039;-79
2024/01/28 01:29:24;;;;;;;51.17;24.63;;;4.80;1.00;;;;;;5103806;27;20198;-79
2024/01/28 01:31:53;;;;;;;48.28;23.58;;;4.80;1.00;;;;;;5117992;27;20104;-79
2024/01/28 01:34:20;;;;;;;48.47;25.02;;;4.80;1.00;;;;;;5103585;27;20560;-79
2024/01/28 01:36:48;;;;;;;58.70;30.10;;;4.80;1.00;;;;;;5113949;27;20514;-78
2024/01/28 01:39:16;;;;;;;57.50;27.63;;;4.80;1.00;;;;;;5131267;27;20126;-76
2024/01/28 01:41:45;;;;;;;67.40;34.00;;;4.60;1.00;;;;;;5141496;27;20036;-78
2024/01/28 01:44:12;;;;;;;65.80;33.05;;;4.60;1.00;;;;;;5133786;27;20043;-77
2024/01/28 01:46:41;;;;;;;68.22;34.85;;;4.60;1.00;;;;;;5119615;27;20043;-78
2024/01/28 01:49:10;;;;;;;75.82;36.70;;;4.50;1.00;;;;;;5121281;27;20028;-77
2024/01/28 01:51:38;;;;;;;71.45;36.60;;;4.60;1.00;;;;;;5120984;27;20540;-79
2024/01/28 01:54:06;;;;;;;72.22;36.83;;;4.60;1.00;;;;;;5116573;27;20120;-79
2024/01/28 01:56:35;;;;;;;72.78;36.00;;;4.70;1.00;;;;;;5118860;27;20040;-80
2024/01/28 01:59:04;;;;;;;67.65;33.15;;;4.80;1.00;;;;;;5121234;27;20047;-79
2024/01/28 02:01:34;;;;;;;79.60;38.67;;;4.80;1.00;;;;;;5097319;27;20074;-78
2024/01/28 02:04:01;;;;;;;79.95;41.20;;;4.80;1.00;;;;;;5114745;22;20053;-75
2024/01/28 02:06:29;;;;;;;75.78;40.15;;;4.70;1.00;;;;;;5052411;28;20404;-74
2024/01/28 02:08:56;;;;;;;79.55;41.45;;;4.60;1.00;;;;;;5073323;28;20036;-76
2024/01/28 02:11:24;;;;;;;79.00;39.75;;;4.60;1.00;;;;;;5053698;28;20040;-74
2024/01/28 02:13:52;;;;;;;68.18;34.78;;;4.70;1.00;;;;;;5054626;28;20039;-75
2024/01/28 02:16:20;;;;;;;67.25;36.38;;;4.70;1.00;;;;;;5076900;28;20043;-74
2024/01/28 02:18:48;;;;;;;64.85;34.53;;;4.70;1.00;;;;;;5084179;28;20033;-75
2024/01/28 02:21:16;;;;;;;74.85;37.45;;;4.80;1.00;;;;;;5072242;28;20160;-75
2024/01/28 02:23:44;;;;;;;66.50;35.40;;;4.80;1.00;;;;;;5074953;28;20036;-74
2024/01/28 02:26:12;;;;;;;75.15;35.70;;;4.90;1.00;;;;;;5055847;28;20127;-76
2024/01/28 02:28:39;;;;;;;62.50;31.75;;;4.90;1.00;;;;;;5055847;28;20153;-75
2024/01/28 02:31:07;;;;;;;54.90;29.92;;;4.90;1.00;;;;;;5074144;28;20067;-75
2024/01/28 02:33:34;;;;;;;50.00;27.90;;;5.00;1.00;;;;;;5073386;28;20075;-74
2024/01/28 02:36:02;;;;;;;53.10;27.60;;;5.00;1.00;;;;;;5073974;28;20500;-74
2024/01/28 02:38:29;;;;;;;47.75;24.70;;;5.10;1.00;;;;;;5054214;28;20040;-75
2024/01/28 02:40:59;;;;;;;53.95;26.10;;;5.10;1.00;;;;;;5069162;28;20056;-76
2024/01/28 02:43:26;;;;;;;54.28;28.05;;;5.20;1.00;;;;;;5051978;28;20117;-76
2024/01/28 02:45:54;;;;;;;58.05;29.38;;;5.10;1.00;;;;;;5057508;28;20052;-75
2024/01/28 02:48:21;;;;;;;54.70;28.08;;;5.10;1.00;;;;;;5080747;28;20044;-74
2024/01/28 02:50:49;;;;;;;53.08;27.67;;;5.00;1.00;;;;;;5091505;28;20039;-74
2024/01/28 02:53:16;;;;;;;53.42;26.27;;;5.00;1.00;;;;;;5091733;28;20041;-72
2024/01/28 02:55:44;;;;;;;43.65;21.58;;;5.10;1.00;;;;;;5092267;28;20043;-77
2024/01/28 02:58:14;;;;;;;38.78;18.05;;;5.10;1.00;;;;;;5080081;28;20032;-75
2024/01/28 03:00:41;;;;;;;27.65;13.80;;;5.10;1.00;;;;;;5082729;28;20040;-75
2024/01/28 03:03:10;;;;;;;29.40;14.02;;;5.20;1.00;;;;;;5068602;28;20048;-74
2024/01/28 03:05:37;;;;;;;25.95;13.68;;;5.30;1.00;;;;;;5069523;28;20128;-75
2024/01/28 03:08:05;;;;;;;29.88;13.80;;;5.30;1.00;;;;;;5052687;28;20040;-74
2024/01/28 03:10:33;;;;;;;30.38;15.23;;;5.40;1.00;;;;;;5079613;28;20036;-75
2024/01/28 03:13:00;;;;;;;30.83;15.15;;;5.40;1.00;;;;;;5069851;28;20037;-74
2024/01/28 03:15:29;;;;;;;29.05;16.17;;;5.40;1.00;;;;;;5069851;28;20036;-74
2024/01/28 03:17:57;;;;;;;30.02;14.90;;;5.30;1.00;;;;;;5073799;28;20041;-74
2024/01/28 03:20:26;;;;;;;30.23;14.82;;;5.30;1.00;;;;;;5083670;28;20044;-74
2024/01/28 03:22:53;;;;;;;28.02;13.57;;;5.20;1.00;;;;;;5052818;28;20045;-73
2024/01/28 03:25:21;;;;;;;26.38;13.32;;;5.20;1.00;;;;;;5070835;28;20060;-75
2024/01/28 03:27:49;;;;;;;28.70;13.88;;;5.10;1.00;;;;;;5077024;28;20051;-75
2024/01/28 03:30:15;;;;;;;27.85;14.48;;;5.20;1.00;;;;;;5069322;28;20055;-76
2024/01/28 03:32:44;;;;;;;29.95;14.63;;;5.20;1.00;;;;;;5070117;28;20036;-75
2024/01/28 03:35:12;;;;;;;30.20;14.80;;;5.20;1.00;;;;;;5073935;28;20143;-75
2024/01/28 03:37:39;;;;;;;27.77;14.57;;;5.30;1.00;;;;;;5073436;28;20044;-76
2024/01/28 03:40:08;;;;;;;30.55;14.77;;;5.30;1.00;;;;;;5073237;28;20052;-76
2024/01/28 03:42:36;;;;;;;30.73;15.18;;;5.30;1.00;;;;;;5052486;28;20492;-76
2024/01/28 03:45:03;;;;;;;27.08;14.52;;;5.40;1.00;;;;;;5068394;28;20040;-75
2024/01/28 03:47:32;;;;;;;28.92;13.73;;;5.40;1.00;;;;;;5052582;28;20507;-74
2024/01/28 03:50:01;;;;;;;28.27;12.13;;;5.40;1.00;;;;;;5068626;28;20098;-74
2024/01/28 03:52:29;;;;;;;22.85;11.77;;;5.40;1.00;;;;;;5068889;28;20055;-74
2024/01/28 03:54:56;;;;;;;26.10;11.45;;;5.50;1.00;;;;;;5069388;28;20494;-74
2024/01/28 03:57:24;;;;;;;22.55;10.00;;;5.50;1.00;;;;;;5070106;28;20040;-74
2024/01/28 03:59:52;;;;;;;21.50;10.50;;;5.50;1.00;;;;;;5068721;28;20053;-74
2024/01/28 04:02:19;;;;;;;21.63;9.60;;;5.50;1.00;;;;;;5068806;28;20039;-75
2024/01/28 04:04:47;;;;;;;21.15;9.15;;;5.50;1.00;;;;;;5069374;28;20611;-75
2024/01/28 04:07:16;;;;;;;22.98;9.80;;;5.60;1.00;;;;;;5070672;28;20045;-74
2024/01/28 04:09:43;;;;;;;19.85;7.65;;;5.50;1.00;;;;;;5070460;28;20033;-74
2024/01/28 04:12:11;;;;;;;20.90;7.80;;;5.60;1.00;;;;;;5073238;28;20314;-74
2024/01/28 04:14:38;;;;;;;15.77;8.05;;;5.50;1.00;;;;;;5072516;28;20033;-75
2024/01/28 04:17:06;;;;;;;18.10;7.93;;;5.50;1.00;;;;;;5073327;28;20049;-75
2024/01/28 04:19:33;;;;;;;18.77;8.07;;;5.50;1.00;;;;;;5055270;28;20471;-75
2024/01/28 04:22:01;;;;;;;25.30;9.02;;;5.40;1.00;;;;;;5073626;28;20480;-75
2024/01/28 04:24:30;;;;;;;17.35;7.60;;;5.40;1.00;;;;;;5072779;28;20498;-76
2024/01/28 04:26:57;;;;;;;18.58;8.23;;;5.40;1.00;;;;;;5073384;28;20044;-74
2024/01/28 04:29:25;;;;;;;19.10;7.95;;;5.50;1.00;;;;;;5071660;28;20059;-76
2024/01/28 04:31:53;;;;;;;20.10;9.18;;;5.50;1.00;;;;;;5073518;28;20044;-76
2024/01/28 04:34:22;;;;;;;22.45;9.52;;;5.40;1.00;;;;;;5073723;28;20048;-75
2024/01/28 04:36:49;;;;;;;22.55;8.95;;;5.50;1.00;;;;;;5055131;28;20135;-74
2024/01/28 04:39:18;;;;;;;21.92;8.60;;;5.50;1.00;;;;;;5060647;28;20055;-75
2024/01/28 04:41:47;;;;;;;20.65;8.20;;;5.50;1.00;;;;;;5082820;28;20106;-75
2024/01/28 04:44:14;;;;;;;18.52;7.90;;;5.50;1.00;;;;;;5072879;28;20506;-75
2024/01/28 04:46:43;;;;;;;16.73;7.68;;;5.50;1.00;;;;;;5055247;28;20040;-75
2024/01/28 04:49:10;;;;;;;21.38;8.18;;;5.50;1.00;;;;;;5067256;28;20056;-77
2024/01/28 04:51:38;;;;;;;19.65;7.93;;;5.50;1.00;;;;;;5086423;28;20118;-76
2024/01/28 04:54:06;;;;;;;16.75;7.15;;;5.50;1.00;;;;;;5083151;28;20060;-76
2024/01/28 04:56:33;;;;;;;19.10;8.30;;;5.60;1.00;;;;;;5082715;28;20052;-77
2024/01/28 04:59:04;;;;;;;18.88;7.38;;;5.60;1.00;;;;;;5075757;28;20044;-76
2024/01/28 05:01:33;;;;;;;18.35;7.53;;;5.60;1.00;;;;;;5076314;28;20048;-77
2024/01/28 05:04:01;;;;;;;16.42;7.35;;;5.60;1.00;;;;;;5062460;28;20079;-77
2024/01/28 05:06:34;;;;;;;19.30;7.10;;;5.70;1.00;;;;;;5081205;28;20114;-76
2024/01/28 05:09:03;;;;;;;16.52;7.47;;;5.70;1.00;;;;;;5063054;28;20540;-75
2024/01/28 05:11:31;;;;;;;17.83;7.05;;;5.70;1.00;;;;;;5065823;28;20071;-75
2024/01/28 05:13:58;;;;;;;19.23;7.28;;;5.70;1.00;;;;;;5086915;28;20064;-76
2024/01/28 05:16:28;;;;;;;13.93;6.63;;;5.70;1.00;;;;;;5091088;28;20060;-76
2024/01/28 05:18:56;;;;;;;15.75;6.47;;;5.80;1.00;;;;;;5069452;28;20097;-77
2024/01/28 05:21:24;;;;;;;21.10;6.82;;;5.70;1.00;;;;;;5071899;28;20037;-74
2024/01/28 05:23:51;;;;;;;17.73;6.75;;;5.60;1.00;;;;;;5052306;28;20040;-77
2024/01/28 05:26:19;;;;;;;18.27;6.13;;;5.50;1.00;;;;;;5053998;28;20036;-75
2024/01/28 05:28:47;;;;;;;15.00;5.85;;;5.50;1.00;;;;;;5074954;28;20607;-75
2024/01/28 05:31:14;;;;;;;15.98;5.43;;;5.50;1.00;;;;;;5074438;28;20086;-75
2024/01/28 05:33:45;;;;;;;14.80;5.32;;;5.50;1.00;;;;;;5075124;28;20102;-76
2024/01/28 05:36:13;;;;;;;12.05;4.90;;;5.60;1.00;;;;;;5075980;28;20047;-75
2024/01/28 05:38:41;;;;;;;15.13;5.68;;;5.50;1.00;;;;;;5073197;28;20051;-76
2024/01/28 05:41:09;;;;;;;16.55;5.40;;;5.50;1.00;;;;;;5081857;28;20557;-74
2024/01/28 05:43:36;;;;;;;15.02;5.78;;;5.40;1.00;;;;;;5084894;28;20036;-76
2024/01/28 05:46:05;;;;;;;14.95;5.32;;;5.40;1.00;;;;;;5085123;28;20040;-75
2024/01/28 05:48:34;;;;;;;16.52;5.45;;;5.30;1.00;;;;;;5073057;28;20204;-74
2024/01/28 05:51:03;;;;;;;14.27;5.65;;;5.30;1.00;;;;;;5074428;28;20052;-74
2024/01/28 05:53:30;;;;;;;13.23;5.20;;;5.30;1.00;;;;;;5056414;28;20037;-76
2024/01/28 05:55:58;;;;;;;16.08;5.70;;;5.40;1.00;;;;;;5078390;28;20040;-74
2024/01/28 05:58:25;;;;;;;17.48;5.80;;;5.50;1.00;;;;;;5085133;28;20120;-74
2024/01/28 06:00:53;;;;;;;16.35;5.13;;;5.50;1.00;;;;;;5085128;28;20044;-74
2024/01/28 06:03:20;;;;;;;19.20;5.45;;;5.50;1.00;;;;;;5079742;28;20036;-74
2024/01/28 06:05:48;;;;;;;14.85;5.88;;;5.50;1.00;;;;;;5071731;28;20061;-76
2024/01/28 06:08:17;;;;;;;14.70;6.30;;;5.60;1.00;;;;;;5057159;28;20147;-74
2024/01/28 06:10:44;;;;;;;19.02;7.60;;;5.60;1.00;;;;;;5073904;28;20315;-75
2024/01/28 06:13:12;;;;;;;24.13;8.55;;;5.60;1.00;;;;;;5072645;28;20041;-75
2024/01/28 06:15:42;;;;;;;16.48;7.55;;;5.70;1.00;;;;;;5073013;28;20040;-75
2024/01/28 06:18:09;;;;;;;21.40;7.55;;;5.70;1.00;;;;;;5071727;28;20043;-74
2024/01/28 06:20:37;;;;;;;19.73;7.20;;;5.70;1.00;;;;;;5078508;28;20152;-74
2024/01/28 06:23:04;;;;;;;18.05;8.10;;;5.60;1.00;;;;;;5084121;28;20042;-75
2024/01/28 06:25:33;;;;;;;19.38;6.97;;;5.60;1.00;;;;;;5071631;28;20059;-76
2024/01/28 06:28:01;;;;;;;20.80;6.68;;;5.60;1.00;;;;;;5071030;28;20064;-76
2024/01/28 06:30:29;;;;;;;24.90;7.15;;;5.60;1.00;;;;;;5069808;28;20055;-75
2024/01/28 06:32:56;;;;;;;19.58;7.53;;;5.60;1.00;;;;;;5070963;28;20123;-74
2024/01/28 06:35:24;;;;;;;17.58;6.72;;;5.60;1.00;;;;;;5054276;28;20102;-74
2024/01/28 06:37:51;;;;;;;20.20;7.50;;;5.50;1.00;;;;;;5055212;28;20041;-74
2024/01/28 06:40:19;;;;;;;22.23;9.38;;;5.60;1.00;;;;;;5070355;28;20438;-75
2024/01/28 06:42:48;;;;;;;19.55;9.43;;;5.50;1.00;;;;;;5070672;28;20041;-76
2024/01/28 06:45:15;;;;;;;22.50;9.93;;;5.60;1.00;;;;;;5072667;28;20037;-76
2024/01/28 06:47:45;;;;;;;21.95;10.00;;;5.60;1.00;;;;;;5073242;28;20074;-74
2024/01/28 06:50:13;;;;;;;26.45;10.15;;;5.60;1.00;;;;;;5052140;28;20094;-76
2024/01/28 06:52:42;;;;;;;25.00;9.90;;;5.60;1.00;;;;;;5053003;28;20040;-74
2024/01/28 06:55:10;;;;;;;29.48;10.65;;;5.70;1.00;;;;;;5053389;28;20068;-75
2024/01/28 06:57:38;;;;;;;20.25;9.13;;;5.70;1.00;;;;;;5070397;28;20045;-75
2024/01/28 07:00:10;;;;;;;19.05;8.68;;;5.70;1.00;;;;;;5069318;28;20047;-75
2024/01/28 07:02:39;;;;;;;21.27;8.18;;;5.60;1.00;;;;;;5070284;28;20048;-74
2024/01/28 07:05:09;;;;;;;23.13;8.60;;;5.70;1.00;;;;;;5048645;28;20076;-74
2024/01/28 07:07:36;;;;;;;16.83;7.80;;;5.70;1.00;;;;;;5065172;28;20399;-74
2024/01/28 07:10:05;;;;;;;17.02;7.82;;;5.70;1.00;;;;;;5049828;28;20128;-75
2024/01/28 07:12:32;;;;;;;16.63;7.82;;;5.70;1.00;;;;;;5047797;28;20397;-76
2024/01/28 07:15:00;;;;;;;19.23;8.10;;;5.80;1.00;;;;;;5051082;28;20037;-75
2024/01/28 07:17:29;;;;;;;18.52;9.27;;;5.80;1.00;;;;;;5066194;28;20099;-75
2024/01/28 07:19:57;;;;;;;21.08;9.18;;;5.90;1.00;;;;;;5048605;28;20488;-74
2024/01/28 07:22:24;;;;;;;21.77;10.15;;;5.90;1.00;;;;;;5049192;28;20124;-74
2024/01/28 07:24:52;;;;;;;25.13;9.48;;;6.00;1.00;;;;;;5050280;28;20124;-73
2024/01/28 07:27:20;;;;;;;20.65;9.75;;;6.00;1.00;;;;;;5047004;28;20076;-74
2024/01/28 07:29:47;;;;;;;25.48;10.20;;;6.10;1.00;;;;;;5048970;28;20075;-75
2024/01/28 07:32:15;;;;;;;26.60;10.55;;;6.10;1.00;;;;;;5050471;28;20037;-75
2024/01/28 07:34:44;;;;;;;31.80;11.25;;;6.10;1.00;;;;;;5048692;28;20056;-75
2024/01/28 07:37:12;;;;;;;24.15;11.57;;;6.00;1.00;;;;;;5047551;28;20052;-75
2024/01/28 07:39:40;;;;;;;27.50;11.35;;;5.90;1.00;;;;;;5049522;28;20100;-75
2024/01/28 07:42:07;;;;;;;27.88;11.90;;;6.00;1.00;;;;;;5050656;28;20094;-75
2024/01/28 07:44:35;;;;;;;28.70;11.15;;;6.00;1.00;;;;;;5060356;28;20033;-74
2024/01/28 07:47:04;;;;;;;25.88;10.25;;;6.10;1.00;;;;;;5073722;28;20041;-73
2024/01/28 07:49:32;;;;;;;19.63;9.52;;;6.00;1.00;;;;;;5073907;28;20049;-75
2024/01/28 07:52:01;;;;;;;19.08;9.35;;;6.10;1.00;;;;;;5066234;28;20045;-75
2024/01/28 07:54:29;;;;;;;24.92;8.98;;;6.30;1.00;;;;;;5072397;28;20037;-75
2024/01/28 07:56:59;;;;;;;20.20;7.85;;;6.30;1.00;;;;;;5059655;28;20045;-75
2024/01/28 07:59:26;;;;;;;21.60;10.27;;;6.40;1.00;;;;;;5036496;28;20037;-73
2024/01/28 08:01:53;;;;;;;28.80;11.85;;;6.50;1.00;;;;;;5054287;28;20049;-74
2024/01/28 08:04:21;;;;;;;22.52;10.60;;;6.50;1.00;;;;;;5069508;28;20055;-74
2024/01/28 08:06:50;;;;;;;25.40;11.40;;;6.60;1.00;;;;;;5065437;28;20044;-75
2024/01/28 08:09:19;;;;;;;27.10;11.00;;;6.70;1.00;;;;;;5057603;28;20053;-76
2024/01/28 08:11:47;;;;;;;20.85;11.10;;;6.80;1.00;;;;;;5080964;28;20045;-75
2024/01/28 08:14:14;;;;;;;25.55;12.32;;;6.70;1.00;;;;;;5064515;28;20110;-75
2024/01/28 08:16:42;;;;;;;24.75;11.25;;;6.80;1.00;;;;;;5076220;28;20057;-75
2024/01/28 08:19:11;;;;;;;24.48;10.40;;;6.90;1.00;;;;;;5055277;28;20047;-75
2024/01/28 08:21:38;;;;;;;29.05;10.63;;;6.90;1.00;;;;;;5074715;28;20075;-75
2024/01/28 08:24:06;;;;;;;23.15;10.43;;;6.90;1.00;;;;;;5074706;28;20040;-74
2024/01/28 08:26:36;;;;;;;21.77;9.35;;;6.90;1.00;;;;;;5056450;28;20091;-75
2024/01/28 08:29:03;;;;;;;16.45;7.50;;;7.10;1.00;;;;;;5072929;28;20612;-75
2024/01/28 08:31:31;;;;;;;19.52;8.65;;;7.20;1.00;;;;;;5081102;28;20111;-75
2024/01/28 08:34:00;;;;;;;17.00;7.72;;;7.10;1.00;;;;;;5066263;28;20071;-74
2024/01/28 08:36:28;;;;;;;20.40;7.43;;;6.80;1.00;;;;;;5081502;28;20036;-77
2024/01/28 08:38:55;;;;;;;19.00;8.95;;;6.80;1.00;;;;;;5062792;28;20412;-75
2024/01/28 08:41:23;;;;;;;23.02;8.27;;;6.90;1.00;;;;;;5060686;28;20054;-75
2024/01/28 08:43:52;;;;;;;18.35;7.30;;;7.00;1.00;;;;;;5076440;28;20036;-74
2024/01/28 08:46:21;;;;;;;17.20;6.25;;;7.10;1.00;;;;;;5077064;28;20040;-75
2024/01/28 08:48:48;;;;;;;18.17;7.53;;;6.90;1.00;;;;;;5055977;28;20052;-75
2024/01/28 08:51:16;;;;;;;21.48;11.38;;;6.80;1.00;;;;;;5055723;28;20048;-78
2024/01/28 08:53:44;;;;;;;17.08;8.68;;;6.60;1.00;;;;;;5058176;28;20040;-75
2024/01/28 08:56:11;;;;;;;19.25;8.48;;;6.60;1.00;;;;;;5074151;28;20458;-74
2024/01/28 08:58:39;;;;;;;20.60;8.32;;;6.60;1.00;;;;;;5073228;28;20048;-76
2024/01/28 09:01:08;;;;;;;15.85;7.95;;;6.60;1.00;;;;;;5054584;28;20131;-74
2024/01/28 09:03:36;;;;;;;19.02;7.93;;;6.50;1.00;;;;;;5072249;28;20048;-75
2024/01/28 09:06:05;;;;;;;21.02;9.32;;;6.60;1.00;;;;;;5058715;28;20056;-74
2024/01/28 09:08:33;;;;;;;17.35;7.40;;;6.70;1.00;;;;;;5076388;28;20059;-76
2024/01/28 09:11:01;;;;;;;18.13;7.32;;;6.70;1.00;;;;;;5053319;28;20444;-76
2024/01/28 09:13:29;;;;;;;18.10;7.47;;;6.90;1.00;;;;;;5071762;28;20044;-77
2024/01/28 09:15:56;;;;;;;16.77;7.20;;;7.00;1.00;;;;;;5055605;28;20045;-76
2024/01/28 09:18:25;;;;;;;15.10;7.15;;;7.00;1.00;;;;;;5074132;28;20051;-76
2024/01/28 09:20:53;;;;;;;23.30;6.65;;;7.00;1.00;;;;;;5072370;28;20040;-77
2024/01/28 09:23:20;;;;;;;16.33;5.72;;;7.00;1.00;;;;;;5073589;28;20043;-75
2024/01/28 09:25:48;;;;;;;20.30;5.90;;;7.00;1.00;;;;;;5073551;28;20063;-75
2024/01/28 09:28:16;;;;;;;21.25;6.38;;;7.10;1.00;;;;;;5054477;28;20101;-77
2024/01/28 09:30:44;;;;;;;12.98;5.10;;;7.10;1.00;;;;;;5071063;28;20049;-76
2024/01/28 09:33:12;;;;;;;16.60;4.78;;;7.00;1.00;;;;;;5073344;28;20121;-76
2024/01/28 09:35:42;;;;;;;15.20;5.63;;;7.00;1.00;;;;;;5073391;28;20048;-75
2024/01/28 09:38:09;;;;;;;17.67;6.07;;;7.10;1.00;;;;;;5054875;28;20052;-75
2024/01/28 09:40:37;;;;;;;11.45;4.30;;;7.20;1.00;;;;;;5055680;28;20040;-76
2024/01/28 09:43:10;;;;;;;16.17;5.82;;;7.20;1.00;;;;;;5073593;28;20048;-75
2024/01/28 09:45:38;;;;;;;29.65;15.80;;;7.20;1.00;;;;;;5072846;28;20127;-76
2024/01/28 09:48:06;;;;;;;14.80;5.57;;;7.30;1.00;;;;;;5073207;28;20063;-74
2024/01/28 09:50:34;;;;;;;19.70;5.32;;;7.20;1.00;;;;;;5072444;28;20041;-75
2024/01/28 09:53:03;;;;;;;13.23;4.40;;;7.30;1.00;;;;;;5054661;28;20127;-74
2024/01/28 09:55:31;;;;;;;17.60;4.97;;;7.40;1.00;;;;;;5071789;28;20040;-75
2024/01/28 09:57:58;;;;;;;13.80;5.75;;;7.50;1.00;;;;;;5055451;28;20455;-76
2024/01/28 10:00:26;;;;;;;13.90;5.32;;;7.60;1.00;;;;;;5060551;28;20094;-75
2024/01/28 10:02:54;;;;;;;12.73;5.22;;;7.50;1.00;;;;;;5057665;28;20044;-76
2024/01/28 10:05:21;;;;;;;17.60;6.05;;;7.60;1.00;;;;;;5054878;28;20568;-77
2024/01/28 10:07:53;;;;;;;16.92;5.05;;;7.60;1.00;;;;;;5059909;28;20467;-75
2024/01/28 10:10:25;;;;;;;26.73;6.40;;;7.50;1.00;;;;;;5052333;28;20083;-75
2024/01/28 10:12:52;;;;;;;18.38;7.10;;;7.80;1.00;;;;;;5067285;28;20049;-75
2024/01/28 10:16:02;;;;;;;20.05;7.90;;;7.90;1.00;;;;;;5059340;28;20047;-76
2024/01/28 10:24:44;;;;;;;20.52;8.07;;;8.00;1.00;;;;;;4977850;28;20046;-75
2024/01/28 10:27:44;;;;;;;17.60;7.20;;;8.10;1.00;;;;;;5001826;28;20128;-76
2024/01/28 10:33:27;;;;;;;15.50;6.10;;;8.20;1.00;;;;;;4973907;28;20502;-75
2024/01/28 10:36:01;;;;;;;17.02;5.93;;;8.20;1.00;;;;;;4989584;28;20049;-75
2024/01/28 10:38:31;;;;;;;16.08;5.55;;;8.30;1.00;;;;;;4975220;28;20046;-76
2024/01/28 10:41:01;;;;;;;14.38;5.75;;;8.20;1.00;;;;;;4983152;28;20046;-76
2024/01/28 10:43:36;;;;;;;15.55;4.93;;;8.30;1.00;;;;;;4985052;28;20146;-77
2024/01/28 10:46:07;;;;;;;18.63;7.03;;;8.30;1.00;;;;;;4985690;28;20044;-75
2024/01/28 10:48:41;;;;;;;21.55;8.48;;;8.30;1.00;;;;;;4982849;28;20490;-74
2024/01/28 10:51:12;;;;;;;22.45;7.63;;;8.20;1.00;;;;;;4994143;28;20058;-75
2024/01/28 10:53:41;;;;;;;13.75;6.85;;;8.30;1.00;;;;;;5002858;28;20057;-76
2024/01/28 10:56:09;;;;;;;16.10;7.35;;;8.30;1.00;;;;;;4993949;28;20050;-76
2024/01/28 10:58:40;;;;;;;15.50;6.32;;;8.40;1.00;;;;;;5020004;28;20567;-74
2024/01/28 11:01:09;;;;;;;17.08;6.05;;;8.60;1.00;;;;;;5049321;28;20045;-74
2024/01/28 11:03:37;;;;;;;16.55;6.75;;;8.70;1.00;;;;;;5056182;28;20037;-75
2024/01/28 11:06:05;;;;;;;15.60;7.13;;;8.80;1.00;;;;;;5060649;28;20622;-75
2024/01/28 11:08:33;;;;;;;16.50;6.63;;;8.60;1.00;;;;;;5078223;28;20487;-76
2024/01/28 11:11:00;;;;;;;12.35;5.75;;;8.60;1.00;;;;;;5074435;28;20123;-75
2024/01/28 11:13:28;;;;;;;14.90;5.60;;;8.60;1.00;;;;;;5060257;28;20071;-74
2024/01/28 11:15:57;;;;;;;13.30;5.30;;;8.80;1.00;;;;;;5060857;28;20044;-74
2024/01/28 11:18:29;;;;;;;19.85;7.80;;;8.90;1.00;;;;;;5075842;28;20615;-74
2024/01/28 11:20:57;;;;;;;16.95;6.63;;;8.90;1.00;;;;;;5052382;28;20052;-75
2024/01/28 11:23:29;;;;;;;15.77;7.53;;;8.90;1.00;;;;;;5072919;28;20033;-75
2024/01/28 11:25:58;;;;;;;17.38;6.75;;;9.00;1.00;;;;;;5074694;28;20040;-75
2024/01/28 11:28:27;;;;;;;18.63;7.72;;;8.80;1.00;;;;;;5076025;28;20052;-76
2024/01/28 11:31:02;;;;;;;20.50;6.03;;;8.90;1.00;;;;;;5079670;28;20052;-75
2024/01/28 11:33:36;;;;;;;20.30;7.38;;;9.00;1.00;;;;;;5087383;28;20048;-76
2024/01/28 11:36:05;;;;;;;15.52;6.10;;;8.70;1.00;;;;;;5083734;28;20044;-76
2024/01/28 11:38:39;;;;;;;19.13;8.18;;;8.50;1.00;;;;;;5066875;28;20040;-76
2024/01/28 11:41:10;;;;;;;16.15;8.40;;;8.50;1.00;;;;;;5082017;28;20049;-76
2024/01/28 11:43:38;;;;;;;18.27;7.80;;;8.60;1.00;;;;;;5062420;28;20049;-76
2024/01/28 11:46:08;;;;;;;17.67;7.88;;;8.50;1.00;;;;;;5066537;28;20041;-75
2024/01/28 11:48:36;;;;;;;20.63;8.23;;;8.60;1.00;;;;;;5088365;28;20032;-75
2024/01/28 11:51:03;;;;;;;18.55;7.22;;;8.80;1.00;;;;;;5084964;28;20033;-74
2024/01/28 11:53:31;;;;;;;13.55;7.22;;;8.60;1.00;;;;;;5072990;28;20041;-75
2024/01/28 11:56:07;;;;;;;15.82;6.90;;;8.40;1.00;;;;;;5069376;28;20195;-76
2024/01/28 11:58:35;;;;;;;20.60;7.30;;;8.60;1.00;;;;;;5069862;28;20045;-75
2024/01/28 12:01:03;;;;;;;18.00;5.97;;;8.70;1.00;;;;;;5050980;28;20047;-77
2024/01/28 12:03:32;;;;;;;13.68;6.40;;;8.50;1.00;;;;;;5051844;28;20523;-76
2024/01/28 12:05:59;;;;;;;17.23;7.80;;;8.40;1.00;;;;;;5069274;28;20510;-75
2024/01/28 12:08:28;;;;;;;17.25;7.00;;;8.50;1.00;;;;;;5051767;28;20047;-74
2024/01/28 12:10:59;;;;;;;13.82;6.22;;;8.70;1.00;;;;;;5071051;28;20041;-75
2024/01/28 12:13:27;;;;;;;17.55;6.72;;;8.70;1.00;;;;;;5053347;28;20060;-74
2024/01/28 12:15:58;;;;;;;17.48;7.32;;;8.80;1.00;;;;;;5070841;28;20055;-76
2024/01/28 12:18:32;;;;;;;23.33;6.95;;;8.60;1.00;;;;;;5074037;28;20036;-74
2024/01/28 12:21:00;;;;;;;20.33;8.00;;;8.60;1.00;;;;;;5072723;28;20052;-76
2024/01/28 12:23:29;;;;;;;16.52;7.00;;;8.60;1.00;;;;;;5058768;28;20044;-76
2024/01/28 12:25:57;;;;;;;18.83;7.03;;;8.70;1.00;;;;;;5084113;28;20096;-75
2024/01/28 12:28:25;;;;;;;17.15;6.30;;;9.00;1.00;;;;;;5085448;28;20045;-75
2024/01/28 12:30:54;;;;;;;14.93;6.32;;;9.00;1.00;;;;;;5075433;28;20041;-76
2024/01/28 12:33:22;;;;;;;16.88;7.18;;;9.10;1.00;;;;;;5072694;28;20044;-76
2024/01/28 12:35:51;;;;;;;13.23;6.25;;;9.20;1.00;;;;;;5072834;28;20043;-75
2024/01/28 12:38:18;;;;;;;19.73;9.45;;;9.10;1.00;;;;;;5073015;28;20033;-75
2024/01/28 12:40:46;;;;;;;15.73;7.95;;;9.30;1.00;;;;;;5055181;28;20044;-74
2024/01/28 12:43:13;;;;;;;23.23;10.75;;;9.60;1.00;;;;;;5054812;28;20052;-76
2024/01/28 12:45:42;;;;;;;18.83;7.22;;;9.70;1.00;;;;;;5073198;28;20041;-76
2024/01/28 12:48:10;;;;;;;22.95;11.07;;;9.80;1.00;;;;;;5073522;28;20044;-75
2024/01/28 12:50:37;;;;;;;29.95;15.75;;;9.50;1.00;;;;;;5073505;28;20033;-75
2024/01/28 12:53:06;;;;;;;20.70;11.40;;;9.70;1.00;;;;;;5055739;28;20391;-76
2024/01/28 12:55:34;;;;;;;12.45;6.38;;;9.90;1.00;;;;;;5054872;28;20143;-75
2024/01/28 12:58:01;;;;;;;17.02;6.28;;;9.60;1.00;;;;;;5054652;28;20043;-76
2024/01/28 13:00:29;;;;;;;23.75;13.32;;;9.40;1.00;;;;;;5073115;28;20040;-74
2024/01/28 13:02:57;;;;;;;18.05;7.97;;;9.40;1.00;;;;;;5055296;28;20076;-75
2024/01/28 13:05:31;;;;;;;22.25;10.77;;;9.40;1.00;;;;;;5054545;28;20484;-76
2024/01/28 13:07:59;;;;;;;16.40;7.50;;;9.60;1.00;;;;;;5057721;28;20041;-75